sensor_id;sensor_type;location;lat;lon;timestamp;pressure;altitude;pressure_sealevel;temperature;humidity
25944;BME280;13742;49.306;8.636;2023-06-14T00:00:28;99948.31;;;22.38;33.50
25944;BME280;13742;49.306;8.636;2023-06-14T00:01:28;99946.17;;;22.36;33.73
25944;BME280;13742;49.306;8.636;2023-06-14T00:02:28;99945.00;;;22.36;33.68
25944;BME280;13742;49.306;8.636;2023-06-14T00:03:29;99946.20;;;22.37;33.60
25944;BME280;13742;49.306;8.636;2023-06-14T00:04:28;99945.84;;;22.36;33.65
25944;BME280;13742;49.306;8.636;2023-06-14T00:05:29;99947.42;;;22.36;33.63
25944;BME280;13742;49.306;8.636;2023-06-14T00:06:28;99943.98;;;22.36;33.56
25944;BME280;13742;49.306;8.636;2023-06-14T00:08:28;99943.47;;;22.34;33.57
25944;BME280;13742;49.306;8.636;2023-06-14T00:09:28;99940.59;;;22.33;33.67
25944;BME280;13742;49.306;8.636;2023-06-14T00:10:30;99939.36;;;22.31;33.81
25944;BME280;13742;49.306;8.636;2023-06-14T00:11:29;99943.23;;;22.31;33.74
25944;BME280;13742;49.306;8.636;2023-06-14T00:12:28;99941.11;;;22.30;33.76
25944;BME280;13742;49.306;8.636;2023-06-14T00:13:28;99940.47;;;22.31;33.89
25944;BME280;13742;49.306;8.636;2023-06-14T00:14:28;99942.05;;;22.31;33.83
25944;BME280;13742;49.306;8.636;2023-06-14T00:15:28;99937.22;;;22.29;33.75
25944;BME280;13742;49.306;8.636;2023-06-14T00:16:28;99938.09;;;22.26;33.83
25944;BME280;13742;49.306;8.636;2023-06-14T00:17:31;99935.02;;;22.28;33.96
25944;BME280;13742;49.306;8.636;2023-06-14T00:18:29;99938.41;;;22.29;33.94
25944;BME280;13742;49.306;8.636;2023-06-14T00:19:30;99935.53;;;22.29;34.01
25944;BME280;13742;49.306;8.636;2023-06-14T00:20:28;99935.52;;;22.28;33.97
25944;BME280;13742;49.306;8.636;2023-06-14T00:21:32;99934.91;;;22.28;33.91
25944;BME280;13742;49.306;8.636;2023-06-14T00:22:28;99936.14;;;22.26;33.80
25944;BME280;13742;49.306;8.636;2023-06-14T00:23:28;99936.38;;;22.25;33.96
25944;BME280;13742;49.306;8.636;2023-06-14T00:24:28;99936.52;;;22.24;33.78
25944;BME280;13742;49.306;8.636;2023-06-14T00:25:28;99935.05;;;22.23;33.81
25944;BME280;13742;49.306;8.636;2023-06-14T00:26:28;99931.79;;;22.23;33.87
25944;BME280;13742;49.306;8.636;2023-06-14T00:27:28;99935.09;;;22.22;34.24
25944;BME280;13742;49.306;8.636;2023-06-14T00:28:28;99934.12;;;22.23;34.05
25944;BME280;13742;49.306;8.636;2023-06-14T00:29:28;99936.38;;;22.22;34.00
25944;BME280;13742;49.306;8.636;2023-06-14T00:30:30;99934.86;;;22.22;34.18
25944;BME280;13742;49.306;8.636;2023-06-14T00:31:28;99933.86;;;22.21;34.31
25944;BME280;13742;49.306;8.636;2023-06-14T00:32:28;99937.86;;;22.21;34.30
25944;BME280;13742;49.306;8.636;2023-06-14T00:33:28;99932.14;;;22.21;34.17
25944;BME280;13742;49.306;8.636;2023-06-14T00:34:28;99929.09;;;22.20;34.30
25944;BME280;13742;49.306;8.636;2023-06-14T00:35:28;99928.61;;;22.21;34.21
25944;BME280;13742;49.306;8.636;2023-06-14T00:36:28;99930.51;;;22.20;34.27
25944;BME280;13742;49.306;8.636;2023-06-14T00:37:28;99927.17;;;22.17;34.41
25944;BME280;13742;49.306;8.636;2023-06-14T00:38:28;99928.52;;;22.16;34.34
25944;BME280;13742;49.306;8.636;2023-06-14T00:39:28;99926.91;;;22.16;34.31
25944;BME280;13742;49.306;8.636;2023-06-14T00:40:28;99928.92;;;22.16;34.29
25944;BME280;13742;49.306;8.636;2023-06-14T00:41:28;99921.28;;;22.13;34.37
25944;BME280;13742;49.306;8.636;2023-06-14T00:42:28;99928.88;;;22.14;34.32
25944;BME280;13742;49.306;8.636;2023-06-14T00:43:28;99925.85;;;22.14;34.26
25944;BME280;13742;49.306;8.636;2023-06-14T00:44:28;99922.56;;;22.13;34.25
25944;BME280;13742;49.306;8.636;2023-06-14T00:45:28;99923.13;;;22.13;34.57
25944;BME280;13742;49.306;8.636;2023-06-14T00:46:28;99919.67;;;22.12;34.53
25944;BME280;13742;49.306;8.636;2023-06-14T00:47:28;99922.31;;;22.10;34.49
25944;BME280;13742;49.306;8.636;2023-06-14T00:48:28;99923.20;;;22.09;34.54
25944;BME280;13742;49.306;8.636;2023-06-14T00:49:28;99919.19;;;22.10;34.58
25944;BME280;13742;49.306;8.636;2023-06-14T00:50:28;99921.85;;;22.09;34.60
25944;BME280;13742;49.306;8.636;2023-06-14T00:51:28;99923.27;;;22.09;34.58
25944;BME280;13742;49.306;8.636;2023-06-14T00:52:29;99925.30;;;22.03;34.45
25944;BME280;13742;49.306;8.636;2023-06-14T00:53:30;99922.55;;;22.03;34.60
25944;BME280;13742;49.306;8.636;2023-06-14T00:54:28;99931.72;;;22.00;34.77
25944;BME280;13742;49.306;8.636;2023-06-14T00:55:28;99929.09;;;22.00;34.77
25944;BME280;13742;49.306;8.636;2023-06-14T00:56:28;99925.95;;;22.01;34.69
25944;BME280;13742;49.306;8.636;2023-06-14T00:57:29;99927.78;;;22.00;34.74
25944;BME280;13742;49.306;8.636;2023-06-14T00:58:28;99925.80;;;21.99;34.89
25944;BME280;13742;49.306;8.636;2023-06-14T00:59:28;99924.17;;;22.01;34.71
25944;BME280;13742;49.306;8.636;2023-06-14T01:00:28;99924.98;;;22.00;34.62
25944;BME280;13742;49.306;8.636;2023-06-14T01:01:28;99927.27;;;22.00;34.59
25944;BME280;13742;49.306;8.636;2023-06-14T01:02:28;99926.58;;;22.00;34.38
25944;BME280;13742;49.306;8.636;2023-06-14T01:03:28;99926.77;;;21.97;34.73
25944;BME280;13742;49.306;8.636;2023-06-14T01:04:28;99921.77;;;21.96;34.73
25944;BME280;13742;49.306;8.636;2023-06-14T01:05:28;99925.23;;;21.95;34.92
25944;BME280;13742;49.306;8.636;2023-06-14T01:07:32;99918.11;;;21.93;34.97
25944;BME280;13742;49.306;8.636;2023-06-14T01:08:31;99921.05;;;21.93;34.96
25944;BME280;13742;49.306;8.636;2023-06-14T01:11:30;99922.05;;;21.90;34.95
25944;BME280;13742;49.306;8.636;2023-06-14T01:12:33;99921.23;;;21.90;34.85
25944;BME280;13742;49.306;8.636;2023-06-14T01:14:28;99925.00;;;21.90;34.85
25944;BME280;13742;49.306;8.636;2023-06-14T01:15:29;99921.98;;;21.88;34.92
25944;BME280;13742;49.306;8.636;2023-06-14T01:16:28;99922.93;;;21.88;35.17
25944;BME280;13742;49.306;8.636;2023-06-14T01:17:31;99925.97;;;21.82;35.13
25944;BME280;13742;49.306;8.636;2023-06-14T01:18:30;99926.52;;;21.84;34.92
25944;BME280;13742;49.306;8.636;2023-06-14T01:19:28;99927.22;;;21.85;34.83
25944;BME280;13742;49.306;8.636;2023-06-14T01:20:29;99923.66;;;21.80;35.25
25944;BME280;13742;49.306;8.636;2023-06-14T01:21:29;99926.78;;;21.81;35.17
25944;BME280;13742;49.306;8.636;2023-06-14T01:22:28;99931.48;;;21.81;35.23
25944;BME280;13742;49.306;8.636;2023-06-14T01:23:32;99927.77;;;21.80;35.17
25944;BME280;13742;49.306;8.636;2023-06-14T01:24:31;99930.11;;;21.80;35.22
25944;BME280;13742;49.306;8.636;2023-06-14T01:25:28;99926.32;;;21.79;35.26
25944;BME280;13742;49.306;8.636;2023-06-14T01:26:29;99927.80;;;21.78;35.34
25944;BME280;13742;49.306;8.636;2023-06-14T01:27:28;99928.36;;;21.77;35.29
25944;BME280;13742;49.306;8.636;2023-06-14T01:28:32;99926.52;;;21.74;35.35
25944;BME280;13742;49.306;8.636;2023-06-14T01:29:32;99925.01;;;21.74;35.27
25944;BME280;13742;49.306;8.636;2023-06-14T01:30:28;99924.45;;;21.72;35.34
25944;BME280;13742;49.306;8.636;2023-06-14T01:31:29;99924.48;;;21.73;35.43
25944;BME280;13742;49.306;8.636;2023-06-14T01:32:28;99927.65;;;21.72;35.17
25944;BME280;13742;49.306;8.636;2023-06-14T01:33:28;99926.58;;;21.72;35.37
25944;BME280;13742;49.306;8.636;2023-06-14T01:34:28;99926.11;;;21.71;35.53
25944;BME280;13742;49.306;8.636;2023-06-14T01:35:28;99930.08;;;21.69;35.52
25944;BME280;13742;49.306;8.636;2023-06-14T01:36:28;99928.34;;;21.69;35.45
25944;BME280;13742;49.306;8.636;2023-06-14T01:37:28;99931.20;;;21.67;35.54
25944;BME280;13742;49.306;8.636;2023-06-14T01:38:28;99929.51;;;21.65;35.43
25944;BME280;13742;49.306;8.636;2023-06-14T01:39:28;99926.66;;;21.64;35.63
25944;BME280;13742;49.306;8.636;2023-06-14T01:40:28;99927.74;;;21.63;35.42
25944;BME280;13742;49.306;8.636;2023-06-14T01:41:28;99927.81;;;21.62;35.60
25944;BME280;13742;49.306;8.636;2023-06-14T01:42:28;99929.88;;;21.60;35.55
25944;BME280;13742;49.306;8.636;2023-06-14T01:43:29;99928.34;;;21.58;35.54
25944;BME280;13742;49.306;8.636;2023-06-14T01:44:28;99931.27;;;21.57;35.64
25944;BME280;13742;49.306;8.636;2023-06-14T01:45:28;99931.03;;;21.58;35.74
25944;BME280;13742;49.306;8.636;2023-06-14T01:46:28;99930.49;;;21.58;35.58
25944;BME280;13742;49.306;8.636;2023-06-14T01:47:28;99932.75;;;21.57;35.52
25944;BME280;13742;49.306;8.636;2023-06-14T01:48:28;99933.95;;;21.57;35.63
25944;BME280;13742;49.306;8.636;2023-06-14T01:49:28;99932.45;;;21.52;35.80
25944;BME280;13742;49.306;8.636;2023-06-14T01:50:29;99930.88;;;21.52;35.65
25944;BME280;13742;49.306;8.636;2023-06-14T01:51:28;99930.27;;;21.51;35.66
25944;BME280;13742;49.306;8.636;2023-06-14T01:52:28;99932.42;;;21.51;35.73
25944;BME280;13742;49.306;8.636;2023-06-14T01:53:28;99931.03;;;21.52;35.71
25944;BME280;13742;49.306;8.636;2023-06-14T01:54:29;99932.69;;;21.51;35.79
25944;BME280;13742;49.306;8.636;2023-06-14T01:55:28;99931.19;;;21.48;35.78
25944;BME280;13742;49.306;8.636;2023-06-14T01:56:28;99929.17;;;21.48;35.67
25944;BME280;13742;49.306;8.636;2023-06-14T01:57:28;99928.78;;;21.47;35.78
25944;BME280;13742;49.306;8.636;2023-06-14T01:58:28;99925.88;;;21.45;35.80
25944;BME280;13742;49.306;8.636;2023-06-14T01:59:28;99929.15;;;21.41;35.79
25944;BME280;13742;49.306;8.636;2023-06-14T02:00:28;99926.00;;;21.40;35.73
25944;BME280;13742;49.306;8.636;2023-06-14T02:01:28;99925.33;;;21.40;35.74
25944;BME280;13742;49.306;8.636;2023-06-14T02:02:28;99923.62;;;21.39;36.01
25944;BME280;13742;49.306;8.636;2023-06-14T02:03:28;99927.34;;;21.40;35.66
25944;BME280;13742;49.306;8.636;2023-06-14T02:04:28;99926.71;;;21.39;35.95
25944;BME280;13742;49.306;8.636;2023-06-14T02:05:28;99925.84;;;21.38;35.89
25944;BME280;13742;49.306;8.636;2023-06-14T02:06:28;99925.75;;;21.36;35.89
25944;BME280;13742;49.306;8.636;2023-06-14T02:07:28;99925.65;;;21.36;35.87
25944;BME280;13742;49.306;8.636;2023-06-14T02:08:28;99927.00;;;21.33;35.89
25944;BME280;13742;49.306;8.636;2023-06-14T02:09:28;99926.57;;;21.33;36.07
25944;BME280;13742;49.306;8.636;2023-06-14T02:10:28;99925.75;;;21.30;35.94
25944;BME280;13742;49.306;8.636;2023-06-14T02:11:28;99929.98;;;21.29;35.97
25944;BME280;13742;49.306;8.636;2023-06-14T02:12:28;99932.03;;;21.30;35.96
25944;BME280;13742;49.306;8.636;2023-06-14T02:13:28;99930.31;;;21.29;35.90
25944;BME280;13742;49.306;8.636;2023-06-14T02:14:28;99934.36;;;21.27;35.98
25944;BME280;13742;49.306;8.636;2023-06-14T02:15:33;99932.48;;;21.25;36.12
25944;BME280;13742;49.306;8.636;2023-06-14T02:16:29;99934.44;;;21.26;36.13
25944;BME280;13742;49.306;8.636;2023-06-14T02:17:28;99936.74;;;21.27;36.08
25944;BME280;13742;49.306;8.636;2023-06-14T02:18:28;99934.94;;;21.26;35.98
25944;BME280;13742;49.306;8.636;2023-06-14T02:19:28;99936.14;;;21.27;35.83
25944;BME280;13742;49.306;8.636;2023-06-14T02:20:28;99935.28;;;21.23;36.01
25944;BME280;13742;49.306;8.636;2023-06-14T02:21:28;99936.72;;;21.24;36.00
25944;BME280;13742;49.306;8.636;2023-06-14T02:22:28;99935.68;;;21.25;35.91
25944;BME280;13742;49.306;8.636;2023-06-14T02:23:28;99939.20;;;21.25;35.94
25944;BME280;13742;49.306;8.636;2023-06-14T02:24:28;99938.21;;;21.23;36.18
25944;BME280;13742;49.306;8.636;2023-06-14T02:25:28;99938.09;;;21.19;35.96
25944;BME280;13742;49.306;8.636;2023-06-14T02:26:28;99941.72;;;21.19;36.06
25944;BME280;13742;49.306;8.636;2023-06-14T02:27:28;99938.80;;;21.20;36.12
25944;BME280;13742;49.306;8.636;2023-06-14T02:28:28;99941.81;;;21.20;35.96
25944;BME280;13742;49.306;8.636;2023-06-14T02:29:28;99940.58;;;21.20;36.08
25944;BME280;13742;49.306;8.636;2023-06-14T02:30:28;99940.91;;;21.20;36.51
25944;BME280;13742;49.306;8.636;2023-06-14T02:31:29;99941.22;;;21.19;36.18
25944;BME280;13742;49.306;8.636;2023-06-14T02:32:28;99944.81;;;21.18;36.37
25944;BME280;13742;49.306;8.636;2023-06-14T02:33:28;99946.03;;;21.15;36.16
25944;BME280;13742;49.306;8.636;2023-06-14T02:34:28;99947.24;;;21.07;36.47
25944;BME280;13742;49.306;8.636;2023-06-14T02:35:29;99946.05;;;21.09;35.97
25944;BME280;13742;49.306;8.636;2023-06-14T02:36:30;99946.89;;;21.10;36.11
25944;BME280;13742;49.306;8.636;2023-06-14T02:37:28;99949.75;;;21.09;36.17
25944;BME280;13742;49.306;8.636;2023-06-14T02:38:28;99945.23;;;21.07;36.34
25944;BME280;13742;49.306;8.636;2023-06-14T02:39:28;99948.11;;;21.08;36.32
25944;BME280;13742;49.306;8.636;2023-06-14T02:40:28;99948.64;;;21.08;36.40
25944;BME280;13742;49.306;8.636;2023-06-14T02:41:28;99948.21;;;21.09;36.44
25944;BME280;13742;49.306;8.636;2023-06-14T02:42:28;99949.73;;;21.06;36.48
25944;BME280;13742;49.306;8.636;2023-06-14T02:43:28;99951.86;;;21.03;36.59
25944;BME280;13742;49.306;8.636;2023-06-14T02:44:29;99952.23;;;21.02;36.65
25944;BME280;13742;49.306;8.636;2023-06-14T02:45:28;99955.32;;;20.90;37.51
25944;BME280;13742;49.306;8.636;2023-06-14T02:46:28;99959.36;;;20.86;37.11
25944;BME280;13742;49.306;8.636;2023-06-14T02:47:28;99960.06;;;20.86;37.28
25944;BME280;13742;49.306;8.636;2023-06-14T02:48:28;99957.85;;;20.85;37.19
25944;BME280;13742;49.306;8.636;2023-06-14T02:49:28;99960.02;;;20.81;37.79
25944;BME280;13742;49.306;8.636;2023-06-14T02:50:29;99962.81;;;20.78;38.12
25944;BME280;13742;49.306;8.636;2023-06-14T02:51:28;99964.34;;;20.79;37.48
25944;BME280;13742;49.306;8.636;2023-06-14T02:52:28;99963.00;;;20.80;37.48
25944;BME280;13742;49.306;8.636;2023-06-14T02:53:28;99961.97;;;20.78;37.95
25944;BME280;13742;49.306;8.636;2023-06-14T02:54:28;99964.12;;;20.77;37.61
25944;BME280;13742;49.306;8.636;2023-06-14T02:55:28;99966.37;;;20.76;37.47
25944;BME280;13742;49.306;8.636;2023-06-14T02:56:28;99962.69;;;20.74;37.72
25944;BME280;13742;49.306;8.636;2023-06-14T02:57:28;99964.43;;;20.73;37.52
25944;BME280;13742;49.306;8.636;2023-06-14T02:58:28;99964.73;;;20.73;37.69
25944;BME280;13742;49.306;8.636;2023-06-14T02:59:28;99967.08;;;20.72;38.16
25944;BME280;13742;49.306;8.636;2023-06-14T03:00:30;99964.40;;;20.70;37.87
25944;BME280;13742;49.306;8.636;2023-06-14T03:01:34;99966.35;;;20.68;38.46
25944;BME280;13742;49.306;8.636;2023-06-14T03:02:28;99963.60;;;20.66;38.42
25944;BME280;13742;49.306;8.636;2023-06-14T03:03:28;99964.88;;;20.66;38.62
25944;BME280;13742;49.306;8.636;2023-06-14T03:04:29;99970.78;;;20.65;38.70
25944;BME280;13742;49.306;8.636;2023-06-14T03:05:28;99967.60;;;20.62;38.52
25944;BME280;13742;49.306;8.636;2023-06-14T03:06:29;99965.07;;;20.50;39.05
25944;BME280;13742;49.306;8.636;2023-06-14T03:07:29;99967.13;;;20.47;38.91
25944;BME280;13742;49.306;8.636;2023-06-14T03:08:28;99972.20;;;20.25;38.03
25944;BME280;13742;49.306;8.636;2023-06-14T03:09:28;99969.07;;;20.34;38.28
25944;BME280;13742;49.306;8.636;2023-06-14T03:10:29;99972.05;;;20.38;37.91
25944;BME280;13742;49.306;8.636;2023-06-14T03:11:28;99971.55;;;20.41;38.45
25944;BME280;13742;49.306;8.636;2023-06-14T03:12:28;99968.16;;;20.42;38.30
25944;BME280;13742;49.306;8.636;2023-06-14T03:13:32;99977.48;;;20.41;38.21
25944;BME280;13742;49.306;8.636;2023-06-14T03:14:29;99971.78;;;20.43;37.76
25944;BME280;13742;49.306;8.636;2023-06-14T03:15:29;99971.78;;;20.45;37.83
25944;BME280;13742;49.306;8.636;2023-06-14T03:16:29;99972.59;;;20.47;37.56
25944;BME280;13742;49.306;8.636;2023-06-14T03:17:30;99976.20;;;20.48;37.97
25944;BME280;13742;49.306;8.636;2023-06-14T03:18:30;99979.33;;;20.50;37.84
25944;BME280;13742;49.306;8.636;2023-06-14T03:19:28;99972.22;;;20.41;37.51
25944;BME280;13742;49.306;8.636;2023-06-14T03:20:29;99968.43;;;20.43;37.40
25944;BME280;13742;49.306;8.636;2023-06-14T03:21:28;99975.23;;;20.41;37.28
25944;BME280;13742;49.306;8.636;2023-06-14T03:22:28;99980.41;;;20.45;37.50
25944;BME280;13742;49.306;8.636;2023-06-14T03:23:28;99984.16;;;20.49;37.53
25944;BME280;13742;49.306;8.636;2023-06-14T03:24:28;99984.46;;;20.51;37.55
25944;BME280;13742;49.306;8.636;2023-06-14T03:25:29;99981.77;;;20.52;37.60
25944;BME280;13742;49.306;8.636;2023-06-14T03:26:28;99987.88;;;20.53;37.60
25944;BME280;13742;49.306;8.636;2023-06-14T03:27:28;99986.38;;;20.49;37.70
25944;BME280;13742;49.306;8.636;2023-06-14T03:28:28;99990.57;;;20.40;38.77
25944;BME280;13742;49.306;8.636;2023-06-14T03:29:28;99993.36;;;20.43;38.44
25944;BME280;13742;49.306;8.636;2023-06-14T03:30:29;99999.77;;;20.44;38.95
25944;BME280;13742;49.306;8.636;2023-06-14T03:31:33;99992.25;;;20.38;39.35
25944;BME280;13742;49.306;8.636;2023-06-14T03:32:28;99994.30;;;20.39;38.94
25944;BME280;13742;49.306;8.636;2023-06-14T03:33:28;99995.47;;;20.34;39.62
25944;BME280;13742;49.306;8.636;2023-06-14T03:34:28;99999.90;;;20.36;39.61
25944;BME280;13742;49.306;8.636;2023-06-14T03:35:28;99997.52;;;20.35;40.37
25944;BME280;13742;49.306;8.636;2023-06-14T03:36:28;99996.67;;;20.35;40.86
25944;BME280;13742;49.306;8.636;2023-06-14T03:37:28;100002.48;;;20.33;40.83
25944;BME280;13742;49.306;8.636;2023-06-14T03:38:28;99995.17;;;20.28;41.47
25944;BME280;13742;49.306;8.636;2023-06-14T03:39:28;100000.46;;;20.20;42.10
25944;BME280;13742;49.306;8.636;2023-06-14T03:40:28;100003.85;;;20.21;41.26
25944;BME280;13742;49.306;8.636;2023-06-14T03:41:28;100005.16;;;20.20;41.06
25944;BME280;13742;49.306;8.636;2023-06-14T03:42:28;100005.52;;;20.18;40.91
25944;BME280;13742;49.306;8.636;2023-06-14T03:43:30;100006.27;;;20.18;41.10
25944;BME280;13742;49.306;8.636;2023-06-14T03:44:28;100008.44;;;20.16;41.91
25944;BME280;13742;49.306;8.636;2023-06-14T03:45:28;100009.81;;;20.14;42.21
25944;BME280;13742;49.306;8.636;2023-06-14T03:46:28;100007.73;;;20.12;42.38
25944;BME280;13742;49.306;8.636;2023-06-14T03:47:28;100012.13;;;20.08;43.23
25944;BME280;13742;49.306;8.636;2023-06-14T03:48:28;100014.39;;;20.06;42.75
25944;BME280;13742;49.306;8.636;2023-06-14T03:49:28;100013.05;;;20.01;44.13
25944;BME280;13742;49.306;8.636;2023-06-14T03:50:28;100011.80;;;19.98;43.18
25944;BME280;13742;49.306;8.636;2023-06-14T03:51:28;100018.87;;;19.95;44.08
25944;BME280;13742;49.306;8.636;2023-06-14T03:52:28;100020.67;;;19.91;44.31
25944;BME280;13742;49.306;8.636;2023-06-14T03:53:29;100023.64;;;19.86;44.90
25944;BME280;13742;49.306;8.636;2023-06-14T03:54:28;100021.52;;;19.80;44.91
25944;BME280;13742;49.306;8.636;2023-06-14T03:55:59;100020.61;;;19.78;43.92
25944;BME280;13742;49.306;8.636;2023-06-14T03:56:28;100016.78;;;19.76;43.65
25944;BME280;13742;49.306;8.636;2023-06-14T03:57:29;100021.70;;;19.75;44.30
25944;BME280;13742;49.306;8.636;2023-06-14T03:58:28;100023.64;;;19.73;44.10
25944;BME280;13742;49.306;8.636;2023-06-14T03:59:28;100027.66;;;19.72;44.27
25944;BME280;13742;49.306;8.636;2023-06-14T04:00:28;100024.60;;;19.70;44.20
25944;BME280;13742;49.306;8.636;2023-06-14T04:01:29;100030.66;;;19.69;44.00
25944;BME280;13742;49.306;8.636;2023-06-14T04:02:31;100031.36;;;19.67;44.66
25944;BME280;13742;49.306;8.636;2023-06-14T04:03:29;100033.97;;;19.65;44.80
25944;BME280;13742;49.306;8.636;2023-06-14T04:04:29;100033.95;;;19.60;45.37
25944;BME280;13742;49.306;8.636;2023-06-14T04:05:28;100037.42;;;19.56;45.60
25944;BME280;13742;49.306;8.636;2023-06-14T04:06:32;100041.13;;;19.45;46.14
25944;BME280;13742;49.306;8.636;2023-06-14T04:07:28;100040.58;;;19.42;46.01
25944;BME280;13742;49.306;8.636;2023-06-14T04:08:28;100042.73;;;19.44;45.52
25944;BME280;13742;49.306;8.636;2023-06-14T04:09:28;100042.05;;;19.43;46.28
25944;BME280;13742;49.306;8.636;2023-06-14T04:10:28;100038.81;;;19.38;45.75
25944;BME280;13742;49.306;8.636;2023-06-14T04:11:28;100039.28;;;19.36;46.19
25944;BME280;13742;49.306;8.636;2023-06-14T04:12:28;100038.10;;;19.36;45.73
25944;BME280;13742;49.306;8.636;2023-06-14T04:13:28;100038.07;;;19.36;45.05
25944;BME280;13742;49.306;8.636;2023-06-14T04:14:28;100038.07;;;19.36;45.88
25944;BME280;13742;49.306;8.636;2023-06-14T04:15:28;100039.48;;;19.31;46.10
25944;BME280;13742;49.306;8.636;2023-06-14T04:16:28;100046.13;;;19.27;46.94
25944;BME280;13742;49.306;8.636;2023-06-14T04:17:28;100045.77;;;19.29;46.60
25944;BME280;13742;49.306;8.636;2023-06-14T04:18:28;100042.25;;;19.28;46.54
25944;BME280;13742;49.306;8.636;2023-06-14T04:19:28;100043.25;;;19.26;46.04
25944;BME280;13742;49.306;8.636;2023-06-14T04:20:28;100047.64;;;19.27;46.17
25944;BME280;13742;49.306;8.636;2023-06-14T04:21:28;100050.63;;;19.28;46.26
25944;BME280;13742;49.306;8.636;2023-06-14T04:22:28;100050.95;;;19.26;46.71
25944;BME280;13742;49.306;8.636;2023-06-14T04:23:28;100054.72;;;19.24;46.62
25944;BME280;13742;49.306;8.636;2023-06-14T04:24:32;100059.84;;;19.24;46.01
25944;BME280;13742;49.306;8.636;2023-06-14T04:25:30;100063.80;;;19.25;46.13
25944;BME280;13742;49.306;8.636;2023-06-14T04:26:29;100064.30;;;19.25;45.76
25944;BME280;13742;49.306;8.636;2023-06-14T04:27:30;100070.27;;;19.25;45.71
25944;BME280;13742;49.306;8.636;2023-06-14T04:28:28;100069.91;;;19.27;46.39
25944;BME280;13742;49.306;8.636;2023-06-14T04:29:29;100068.78;;;19.24;46.81
25944;BME280;13742;49.306;8.636;2023-06-14T04:30:31;100071.33;;;19.25;46.38
25944;BME280;13742;49.306;8.636;2023-06-14T04:31:29;100069.76;;;19.25;46.62
25944;BME280;13742;49.306;8.636;2023-06-14T04:32:29;100068.42;;;19.25;46.47
25944;BME280;13742;49.306;8.636;2023-06-14T04:33:28;100071.38;;;19.26;46.68
25944;BME280;13742;49.306;8.636;2023-06-14T04:34:33;100071.95;;;19.28;46.35
25944;BME280;13742;49.306;8.636;2023-06-14T04:35:29;100070.51;;;19.27;46.33
25944;BME280;13742;49.306;8.636;2023-06-14T04:36:28;100069.91;;;19.27;47.28
25944;BME280;13742;49.306;8.636;2023-06-14T04:37:29;100073.93;;;19.23;47.62
25944;BME280;13742;49.306;8.636;2023-06-14T04:38:28;100073.93;;;19.23;47.34
25944;BME280;13742;49.306;8.636;2023-06-14T04:39:28;100075.04;;;19.23;46.89
25944;BME280;13742;49.306;8.636;2023-06-14T04:40:28;100075.70;;;19.23;46.71
25944;BME280;13742;49.306;8.636;2023-06-14T04:41:29;100074.08;;;19.24;47.21
25944;BME280;13742;49.306;8.636;2023-06-14T04:42:31;100075.28;;;19.25;46.73
25944;BME280;13742;49.306;8.636;2023-06-14T04:43:28;100078.56;;;19.26;46.65
25944;BME280;13742;49.306;8.636;2023-06-14T04:44:31;100078.46;;;19.25;48.21
25944;BME280;13742;49.306;8.636;2023-06-14T04:45:31;100075.69;;;19.25;48.06
25944;BME280;13742;49.306;8.636;2023-06-14T04:46:28;100076.72;;;19.26;47.93
25944;BME280;13742;49.306;8.636;2023-06-14T04:47:29;100079.14;;;19.21;47.95
25944;BME280;13742;49.306;8.636;2023-06-14T04:48:28;100075.77;;;19.23;47.40
25944;BME280;13742;49.306;8.636;2023-06-14T04:49:30;100078.59;;;19.24;46.96
25944;BME280;13742;49.306;8.636;2023-06-14T04:50:29;100077.96;;;19.25;46.71
25944;BME280;13742;49.306;8.636;2023-06-14T04:51:29;100079.50;;;19.26;46.70
25944;BME280;13742;49.306;8.636;2023-06-14T04:52:29;100083.02;;;19.24;47.11
25944;BME280;13742;49.306;8.636;2023-06-14T04:53:29;100082.05;;;19.25;46.90
25944;BME280;13742;49.306;8.636;2023-06-14T04:54:28;100083.02;;;19.24;48.23
25944;BME280;13742;49.306;8.636;2023-06-14T04:55:28;100089.55;;;19.26;47.13
25944;BME280;13742;49.306;8.636;2023-06-14T04:56:30;100087.75;;;19.27;47.03
25944;BME280;13742;49.306;8.636;2023-06-14T04:57:28;100086.55;;;19.29;47.34
25944;BME280;13742;49.306;8.636;2023-06-14T04:58:28;100086.81;;;19.27;48.25
25944;BME280;13742;49.306;8.636;2023-06-14T04:59:28;100084.39;;;19.14;48.77
25944;BME280;13742;49.306;8.636;2023-06-14T05:00:28;100085.88;;;19.12;47.90
25944;BME280;13742;49.306;8.636;2023-06-14T05:01:28;100090.75;;;19.15;48.24
25944;BME280;13742;49.306;8.636;2023-06-14T05:02:30;100091.27;;;19.16;48.09
25944;BME280;13742;49.306;8.636;2023-06-14T05:03:30;100094.20;;;19.19;49.26
25944;BME280;13742;49.306;8.636;2023-06-14T05:04:28;100090.72;;;19.20;49.00
25944;BME280;13742;49.306;8.636;2023-06-14T05:05:28;100096.45;;;19.21;48.82
25944;BME280;13742;49.306;8.636;2023-06-14T05:06:28;100098.14;;;19.23;48.81
25944;BME280;13742;49.306;8.636;2023-06-14T05:07:28;100098.58;;;19.24;49.10
25944;BME280;13742;49.306;8.636;2023-06-14T05:08:28;100094.88;;;19.25;48.39
25944;BME280;13742;49.306;8.636;2023-06-14T05:09:28;100095.38;;;19.25;49.58
25944;BME280;13742;49.306;8.636;2023-06-14T05:10:28;100098.63;;;19.25;49.86
25944;BME280;13742;49.306;8.636;2023-06-14T05:11:28;100097.98;;;19.26;49.45
25944;BME280;13742;49.306;8.636;2023-06-14T05:12:29;100099.97;;;19.27;49.66
25944;BME280;13742;49.306;8.636;2023-06-14T05:13:28;100100.31;;;19.28;49.83
25944;BME280;13742;49.306;8.636;2023-06-14T05:14:28;100100.11;;;19.29;49.66
25944;BME280;13742;49.306;8.636;2023-06-14T05:15:29;100101.50;;;19.30;49.19
25944;BME280;13742;49.306;8.636;2023-06-14T05:16:29;100097.89;;;19.32;49.04
25944;BME280;13742;49.306;8.636;2023-06-14T05:17:28;100105.03;;;19.33;49.38
25944;BME280;13742;49.306;8.636;2023-06-14T05:18:28;100103.56;;;19.34;49.24
25944;BME280;13742;49.306;8.636;2023-06-14T05:19:28;100101.09;;;19.35;49.12
25944;BME280;13742;49.306;8.636;2023-06-14T05:20:28;100102.17;;;19.36;48.84
25944;BME280;13742;49.306;8.636;2023-06-14T05:21:28;100102.31;;;19.39;48.90